createdAt,value
2022-09-11T00:01:35.378Z,101680.94
2022-09-11T00:04:03.213Z,101674.38
2022-09-11T00:06:31.165Z,101690.69
2022-09-11T00:09:01.971Z,101688.53
2022-09-11T00:11:42.687Z,101683.75
2022-09-11T00:14:13.926Z,101678.47
2022-09-11T00:16:45.046Z,101669.72
2022-09-11T00:19:18.849Z,101662.81
2022-09-11T00:21:46.491Z,101658.25
2022-09-11T00:24:13.413Z,101662.25
2022-09-11T00:26:42.491Z,101654.75
2022-09-11T00:29:10.218Z,101650.00
2022-09-11T00:31:37.697Z,101655.13
2022-09-11T00:34:05.077Z,101641.31
2022-09-11T00:36:32.401Z,101646.91
2022-09-11T00:38:59.829Z,101634.25
2022-09-11T00:41:31.945Z,101643.44
2022-09-11T00:44:05.092Z,101646.84
2022-09-11T00:46:47.838Z,101643.56
2022-09-11T00:49:28.197Z,101643.13
2022-09-11T00:52:15.093Z,101653.25
2022-09-11T00:54:52.419Z,101653.03
2022-09-11T00:57:25.828Z,101650.84
2022-09-11T00:59:55.912Z,101642.59
2022-09-11T01:02:27.595Z,101636.28
2022-09-11T01:04:56.812Z,101640.09
2022-09-11T01:07:26.151Z,101638.00
2022-09-11T01:09:54.226Z,101635.59
2022-09-11T01:13:09.906Z,101627.38
2022-09-11T01:15:53.736Z,101622.88
2022-09-11T01:18:28.625Z,101626.81
2022-09-11T01:21:23.647Z,101626.31
2022-09-11T01:24:05.276Z,101628.34
2022-09-11T01:26:50.206Z,101635.09
2022-09-11T01:29:59.827Z,101633.28
2022-09-11T01:32:43.636Z,101636.19
2022-09-11T01:35:38.247Z,101633.94
2022-09-11T01:38:16.164Z,101638.16
2022-09-11T01:41:09.595Z,101639.78
2022-09-11T01:43:51.393Z,101643.41
2022-09-11T01:46:23.053Z,101633.31
2022-09-11T01:49:03.426Z,101635.66
2022-09-11T01:51:34.220Z,101635.59
2022-09-11T01:54:03.472Z,101638.84
2022-09-11T01:56:37.815Z,101656.16
2022-09-11T01:59:10.855Z,101648.09
2022-09-11T02:01:43.101Z,101658.97
2022-09-11T02:04:24.484Z,101645.22
2022-09-11T02:06:59.722Z,101637.06
2022-09-11T02:09:33.526Z,101648.78
2022-09-11T02:12:04.235Z,101642.34
2022-09-11T02:14:40.677Z,101630.78
2022-09-11T02:17:24.700Z,101642.53
2022-09-11T02:19:57.545Z,101635.06
2022-09-11T02:22:25.209Z,101639.00
2022-09-11T02:24:52.504Z,101649.78
2022-09-11T02:27:25.812Z,101648.13
2022-09-11T02:29:54.223Z,101662.81
2022-09-11T02:32:22.909Z,101663.66
2022-09-11T02:34:51.352Z,101661.09
2022-09-11T02:37:27.073Z,101649.75
2022-09-11T02:40:18.021Z,101669.97
2022-09-11T02:43:09.846Z,101663.47
2022-09-11T02:45:54.360Z,101662.03
2022-09-11T02:48:56.215Z,101667.00
2022-09-11T02:51:46.473Z,101670.59
2022-09-11T02:54:38.927Z,101669.25
2022-09-11T02:57:24.403Z,101669.81
2022-09-11T03:00:04.693Z,101675.50
2022-09-11T03:02:37.471Z,101682.78
2022-09-11T03:05:06.361Z,101672.31
2022-09-11T03:07:33.580Z,101691.66
2022-09-11T03:10:00.573Z,101680.13
2022-09-11T03:12:28.695Z,101681.50
2022-09-11T03:14:57.039Z,101690.94
2022-09-11T03:17:25.419Z,101684.81
2022-09-11T03:19:52.440Z,101694.44
2022-09-11T03:22:19.641Z,101697.88
2022-09-11T03:24:46.648Z,101695.56
2022-09-11T03:27:13.865Z,101690.59
2022-09-11T03:29:40.916Z,101692.09
2022-09-11T03:32:07.811Z,101693.34
2022-09-11T03:34:34.707Z,101700.16
2022-09-11T03:37:02.355Z,101711.50
2022-09-11T03:39:29.292Z,101703.78
2022-09-11T03:41:56.175Z,101709.72
2022-09-11T03:44:23.197Z,101702.94
2022-09-11T03:46:50.079Z,101711.06
2022-09-11T03:49:17.168Z,101706.75
2022-09-11T03:51:44.108Z,101698.31
2022-09-11T03:54:11.231Z,101694.50
2022-09-11T03:56:38.105Z,101692.84
2022-09-11T03:59:05.227Z,101697.00
2022-09-11T04:01:32.601Z,101700.94
2022-09-11T04:03:59.476Z,101706.56
2022-09-11T04:06:27.851Z,101710.03
2022-09-11T04:08:54.791Z,101709.69
2022-09-11T04:11:22.563Z,101713.00
2022-09-11T04:13:49.473Z,101705.91
2022-09-11T04:16:19.405Z,101701.44
2022-09-11T04:18:47.343Z,101716.31
2022-09-11T04:21:17.930Z,101714.63
2022-09-11T04:23:45.709Z,101710.19
2022-09-11T04:26:19.440Z,101713.41
2022-09-11T04:28:46.969Z,101706.78
2022-09-11T04:31:17.029Z,101716.72
2022-09-11T04:33:45.449Z,101720.13
2022-09-11T04:36:19.641Z,101722.25
2022-09-11T04:38:47.842Z,101730.78
2022-09-11T04:41:16.348Z,101730.75
2022-09-11T04:43:43.641Z,101737.06
2022-09-11T04:46:14.502Z,101737.34
2022-09-11T04:48:51.651Z,101742.03
2022-09-11T04:51:29.194Z,101741.75
2022-09-11T04:53:57.916Z,101739.31
2022-09-11T04:56:29.133Z,101742.72
2022-09-11T04:59:01.021Z,101753.28
2022-09-11T05:01:31.695Z,101742.03
2022-09-11T05:04:00.511Z,101739.13
2022-09-11T05:06:30.286Z,101740.19
2022-09-11T05:09:05.052Z,101741.00
2022-09-11T05:11:32.379Z,101739.59
2022-09-11T05:13:59.509Z,101751.25
2022-09-11T05:16:28.836Z,101754.56
2022-09-11T05:18:57.751Z,101752.41
2022-09-11T05:21:26.651Z,101757.63
2022-09-11T05:23:57.931Z,101754.19
2022-09-11T05:26:32.588Z,101749.81
2022-09-11T05:29:07.495Z,101757.41
2022-09-11T05:31:34.443Z,101769.38
2022-09-11T05:34:03.211Z,101761.22
2022-09-11T05:36:34.239Z,101762.81
2022-09-11T05:39:01.306Z,101765.00
2022-09-11T05:41:28.369Z,101766.44
2022-09-11T05:43:55.302Z,101767.03
2022-09-11T05:46:22.761Z,101765.34
2022-09-11T05:48:49.696Z,101779.88
2022-09-11T05:51:21.812Z,101774.63
2022-09-11T05:53:53.679Z,101767.34
2022-09-11T05:56:23.862Z,101772.19
2022-09-11T05:58:51.944Z,101776.47
2022-09-11T06:01:22.585Z,101767.28
2022-09-11T06:03:50.728Z,101778.06
2022-09-11T06:06:21.213Z,101774.03
2022-09-11T06:08:50.157Z,101779.22
2022-09-11T06:11:19.181Z,101793.75
2022-09-11T06:13:47.409Z,101787.75
2022-09-11T06:16:19.065Z,101787.22
2022-09-11T06:18:50.614Z,101784.69
2022-09-11T06:21:26.851Z,101802.06
2022-09-11T06:23:54.291Z,101794.38
2022-09-11T06:26:25.100Z,101791.75
2022-09-11T06:28:54.417Z,101788.16
2022-09-11T06:31:24.340Z,101781.88
2022-09-11T06:33:51.580Z,101775.41
2022-09-11T06:36:23.093Z,101779.88
2022-09-11T06:38:58.059Z,101785.38
2022-09-11T06:41:27.070Z,101786.84
2022-09-11T06:43:54.095Z,101781.94
2022-09-11T06:46:24.661Z,101775.94
2022-09-11T06:48:52.721Z,101773.19
2022-09-11T06:51:22.958Z,101773.16
2022-09-11T06:53:56.235Z,101782.25
2022-09-11T06:56:23.180Z,101782.13
2022-09-11T06:58:50.402Z,101773.78
2022-09-11T07:01:19.765Z,101776.16
2022-09-11T07:03:53.236Z,101785.03
2022-09-11T07:06:26.730Z,101790.13
2022-09-11T07:09:01.633Z,101783.19
2022-09-11T07:11:34.393Z,101779.16
2022-09-11T07:14:06.491Z,101765.91
2022-09-11T07:16:33.906Z,101776.41
2022-09-11T07:19:01.021Z,101781.44
2022-09-11T07:21:28.596Z,101770.69
2022-09-11T07:23:58.694Z,101776.09
2022-09-11T07:26:28.617Z,101771.94
2022-09-11T07:28:57.524Z,101770.06
2022-09-11T07:31:31.147Z,101766.38
2022-09-11T07:33:58.111Z,101770.03
2022-09-11T07:36:30.144Z,101769.03
2022-09-11T07:38:58.707Z,101757.16
2022-09-11T07:41:28.007Z,101758.63
2022-09-11T07:43:57.788Z,101760.13
2022-09-11T07:46:25.850Z,101751.19
2022-09-11T07:48:55.256Z,101754.53
2022-09-11T07:51:22.241Z,101754.13
2022-09-11T07:53:54.348Z,101754.72
2022-09-11T07:56:24.618Z,101756.00
2022-09-11T07:58:54.906Z,101749.78
2022-09-11T08:01:30.822Z,101760.38
2022-09-11T08:04:09.835Z,101763.66
2022-09-11T08:06:38.987Z,101776.66
2022-09-11T08:09:17.556Z,101770.72
2022-09-11T08:11:48.982Z,101765.84
2022-09-11T08:14:17.641Z,101772.09
2022-09-11T08:16:45.119Z,101769.72
2022-09-11T08:19:22.197Z,101769.59
2022-09-11T08:21:50.497Z,101756.28
2022-09-11T08:24:18.492Z,101764.63
2022-09-11T08:26:48.720Z,101774.38
2022-09-11T08:29:16.485Z,101775.88
2022-09-11T08:31:43.905Z,101770.47
2022-09-11T08:34:10.933Z,101777.13
2022-09-11T08:36:37.880Z,101775.81
2022-09-11T08:39:05.419Z,101780.94
2022-09-11T08:42:17.079Z,101771.53
2022-09-11T08:44:59.086Z,101773.06
2022-09-11T08:47:29.341Z,101774.47
2022-09-11T08:50:20.412Z,101777.59
2022-09-11T08:52:48.842Z,101771.44
2022-09-11T08:55:26.671Z,101770.06
2022-09-11T08:58:22.558Z,101775.16
2022-09-11T09:01:23.915Z,101782.81
2022-09-11T09:04:41.385Z,101777.09
2022-09-11T09:07:38.600Z,101771.56
2022-09-11T09:10:44.993Z,101782.22
2022-09-11T09:13:45.962Z,101773.38
2022-09-11T09:16:32.272Z,101781.53
2022-09-11T09:19:10.486Z,101786.41
2022-09-11T09:21:55.377Z,101788.06
2022-09-11T09:24:23.219Z,101779.47
2022-09-11T09:26:56.435Z,101771.81
2022-09-11T09:29:36.086Z,101788.47
2022-09-11T09:32:13.467Z,101777.19
2022-09-11T09:34:43.593Z,101779.13
2022-09-11T09:37:22.191Z,101778.72
2022-09-11T09:39:50.403Z,101778.38
2022-09-11T09:42:49.621Z,101787.75
2022-09-11T09:45:37.461Z,101781.94
2022-09-11T09:48:07.264Z,101774.94
2022-09-11T09:50:41.789Z,101771.59
2022-09-11T09:53:45.439Z,101770.78
2022-09-11T09:56:18.315Z,101762.03
2022-09-11T09:58:57.337Z,101766.06
2022-09-11T10:01:45.419Z,101755.38
2022-09-11T10:04:27.849Z,101765.25
2022-09-11T10:07:11.382Z,101758.84
2022-09-11T10:09:51.543Z,101762.59
2022-09-11T10:12:27.812Z,101758.34
2022-09-11T10:15:02.910Z,101761.03
2022-09-11T10:17:30.273Z,101756.16
2022-09-11T10:20:18.611Z,101757.69
2022-09-11T10:22:46.674Z,101743.19
2022-09-11T10:25:27.868Z,101752.88
2022-09-11T10:28:02.960Z,101755.13
2022-09-11T10:30:55.635Z,101751.66
2022-09-11T10:33:32.039Z,101746.94
2022-09-11T10:36:01.167Z,101742.28
2022-09-11T10:38:45.977Z,101738.66
2022-09-11T10:41:13.187Z,101750.00
2022-09-11T10:44:05.594Z,101744.41
2022-09-11T10:46:40.661Z,101750.88
2022-09-11T10:49:21.816Z,101752.72
2022-09-11T10:52:19.826Z,101745.00
2022-09-11T10:55:04.409Z,101749.97
2022-09-11T10:57:44.381Z,101745.28
2022-09-11T11:00:21.106Z,101740.63
2022-09-11T11:03:12.536Z,101743.78
2022-09-11T11:06:13.505Z,101744.28
2022-09-11T11:09:01.796Z,101740.22
2022-09-11T11:12:00.990Z,101740.16
2022-09-11T11:14:37.841Z,101732.25
2022-09-11T11:17:36.856Z,101731.59
2022-09-11T11:20:35.521Z,101730.72
2022-09-11T11:23:29.720Z,101731.47
2022-09-11T11:26:42.333Z,101732.69
2022-09-11T11:29:37.449Z,101732.31
2022-09-11T11:33:13.195Z,101729.50
2022-09-11T11:36:18.746Z,101731.44
2022-09-11T11:39:16.869Z,101713.63
2022-09-11T11:41:55.440Z,101728.47
2022-09-11T11:44:33.974Z,101728.53
2022-09-11T11:47:04.430Z,101730.63
2022-09-11T11:49:45.574Z,101722.78
2022-09-11T11:52:49.662Z,101720.66
2022-09-11T11:55:25.610Z,101722.25
2022-09-11T11:58:22.001Z,101721.41
2022-09-11T12:00:59.901Z,101718.84
2022-09-11T12:03:43.177Z,101720.06
2022-09-11T12:06:10.625Z,101715.56
2022-09-11T12:08:45.654Z,101723.31
2022-09-11T12:11:17.253Z,101727.97
2022-09-11T12:13:48.720Z,101720.19
2022-09-11T12:16:35.198Z,101719.38
2022-09-11T12:19:07.506Z,101713.09
2022-09-11T12:21:38.756Z,101707.22
2022-09-11T12:24:05.547Z,101709.91
2022-09-11T12:26:32.636Z,101720.75
2022-09-11T12:29:15.816Z,101718.34
2022-09-11T12:32:02.873Z,101714.47
2022-09-11T12:34:38.934Z,101717.69
2022-09-11T12:37:20.304Z,101715.22
2022-09-11T12:39:56.567Z,101718.72
2022-09-11T12:42:23.424Z,101721.28
2022-09-11T12:44:50.217Z,101713.44
2022-09-11T12:47:23.372Z,101697.16
2022-09-11T12:50:05.092Z,101705.19
2022-09-11T12:52:47.848Z,101697.53
2022-09-11T12:55:33.181Z,101700.47
2022-09-11T12:58:07.651Z,101694.56
2022-09-11T13:00:44.325Z,101690.78
2022-09-11T13:03:27.950Z,101687.53
2022-09-11T13:06:00.992Z,101681.50
2022-09-11T13:08:33.654Z,101686.19
2022-09-11T13:11:43.539Z,101688.72
2022-09-11T13:14:28.591Z,101687.94
2022-09-11T13:17:01.388Z,101687.25
2022-09-11T13:19:37.397Z,101693.09
2022-09-11T13:22:23.748Z,101684.06
2022-09-11T13:24:51.545Z,101691.91
2022-09-11T13:27:28.287Z,101679.88
2022-09-11T13:29:59.178Z,101684.78
2022-09-11T13:32:26.174Z,101682.31
2022-09-11T13:35:01.838Z,101672.00
2022-09-11T13:37:38.598Z,101680.47
2022-09-11T13:40:11.308Z,101676.25
2022-09-11T13:42:40.667Z,101673.59
2022-09-11T13:45:11.451Z,101669.69
2022-09-11T13:47:41.216Z,101677.59
2022-09-11T13:50:15.104Z,101677.41
2022-09-11T13:52:45.121Z,101672.84
2022-09-11T13:55:20.633Z,101668.00
2022-09-11T13:58:03.501Z,101668.84
2022-09-11T14:00:46.729Z,101663.50
2022-09-11T14:03:28.180Z,101664.66
2022-09-11T14:06:09.220Z,101657.88
2022-09-11T14:08:40.354Z,101667.06
2022-09-11T14:11:13.315Z,101651.94
2022-09-11T14:13:56.679Z,101662.22
2022-09-11T14:16:34.841Z,101653.63
2022-09-11T14:19:13.225Z,101647.72
2022-09-11T14:21:44.347Z,101644.00
2022-09-11T14:24:37.264Z,101634.59
2022-09-11T14:27:32.807Z,101637.78
2022-09-11T14:30:00.560Z,101636.38
2022-09-11T14:32:39.073Z,101632.09
2022-09-11T14:35:09.747Z,101628.81
2022-09-11T14:37:45.852Z,101630.56
2022-09-11T14:40:18.868Z,101623.97
2022-09-11T14:42:47.205Z,101623.34
2022-09-11T14:45:24.701Z,101622.88
2022-09-11T14:47:52.223Z,101618.75
2022-09-11T14:50:19.319Z,101616.44
2022-09-11T14:52:46.836Z,101615.41
2022-09-11T14:55:19.671Z,101613.31
2022-09-11T14:57:47.443Z,101608.09
2022-09-11T15:00:16.976Z,101613.03
2022-09-11T15:02:44.197Z,101604.19
2022-09-11T15:05:22.910Z,101599.09
2022-09-11T15:07:49.980Z,101601.41
2022-09-11T15:10:16.923Z,101607.34
2022-09-11T15:12:44.615Z,101601.97
2022-09-11T15:15:11.970Z,101597.88
2022-09-11T15:17:38.999Z,101595.13
2022-09-11T15:20:09.115Z,101589.63
2022-09-11T15:22:38.242Z,101589.47
2022-09-11T15:25:06.294Z,101591.28
2022-09-11T15:27:33.372Z,101584.72
2022-09-11T15:30:00.679Z,101584.34
2022-09-11T15:32:27.892Z,101585.91
2022-09-11T15:34:55.127Z,101585.41
2022-09-11T15:37:22.075Z,101588.34
2022-09-11T15:39:50.927Z,101577.78
2022-09-11T15:42:18.470Z,101585.53
2022-09-11T15:44:46.218Z,101580.16
2022-09-11T15:47:13.740Z,101565.13
2022-09-11T15:49:44.477Z,101566.75
2022-09-11T15:52:11.518Z,101559.44
2022-09-11T15:54:38.629Z,101564.13
2022-09-11T15:57:05.977Z,101558.94
2022-09-11T15:59:33.448Z,101562.66
2022-09-11T16:02:00.496Z,101560.13
2022-09-11T16:04:31.673Z,101561.75
2022-09-11T16:06:59.057Z,101558.47
2022-09-11T16:09:29.032Z,101555.09
2022-09-11T16:11:56.932Z,101552.84
2022-09-11T16:14:32.102Z,101563.09
2022-09-11T16:17:00.423Z,101558.03
2022-09-11T16:19:29.012Z,101554.28
2022-09-11T16:21:58.707Z,101546.19
2022-09-11T16:24:28.656Z,101551.56
2022-09-11T16:26:56.051Z,101566.81
2022-09-11T16:29:49.402Z,101551.41
2022-09-11T16:32:28.451Z,101547.03
2022-09-11T16:34:57.561Z,101541.00
2022-09-11T16:37:25.059Z,101540.88
2022-09-11T16:39:52.606Z,101538.41
2022-09-11T16:42:21.174Z,101532.88
2022-09-11T16:44:49.830Z,101528.28
2022-09-11T16:47:17.941Z,101524.56
2022-09-11T16:52:32.716Z,101531.22
2022-09-11T16:54:59.953Z,101525.53
2022-09-11T16:57:29.398Z,101522.16
2022-09-11T16:59:56.296Z,101521.44
2022-09-11T17:02:23.427Z,101522.00
2022-09-11T17:04:50.322Z,101523.34
2022-09-11T17:07:18.057Z,101518.59
2022-09-11T17:09:47.093Z,101509.88
2022-09-11T17:12:17.785Z,101513.34
2022-09-11T17:14:44.671Z,101512.16
2022-09-11T17:17:11.606Z,101511.91
2022-09-11T17:19:38.541Z,101506.63
2022-09-11T17:22:05.443Z,101504.56
2022-09-11T17:24:32.409Z,101507.56
2022-09-11T17:26:59.271Z,101510.00
2022-09-11T17:29:26.438Z,101509.53
2022-09-11T17:32:05.340Z,101520.84
2022-09-11T17:34:41.525Z,101508.03
2022-09-11T17:37:10.019Z,101513.63
2022-09-11T17:39:36.975Z,101509.75
2022-09-11T17:42:04.118Z,101513.16
2022-09-11T17:44:31.495Z,101507.16
2022-09-11T17:47:02.250Z,101502.88
2022-09-11T17:49:31.233Z,101498.16
2022-09-11T17:51:58.560Z,101501.88
2022-09-11T17:54:27.825Z,101511.16
2022-09-11T17:56:55.735Z,101512.75
2022-09-11T17:59:23.626Z,101503.41
2022-09-11T18:01:51.170Z,101511.13
2022-09-11T18:04:18.473Z,101509.28
2022-09-11T18:06:45.420Z,101513.63
2022-09-11T18:09:19.679Z,101509.91
2022-09-11T18:11:50.003Z,101506.84
2022-09-11T18:14:18.542Z,101515.19
2022-09-11T18:16:47.818Z,101513.81
2022-09-11T18:19:16.765Z,101515.19
2022-09-11T18:21:48.023Z,101521.56
2022-09-11T18:24:20.072Z,101522.97
2022-09-11T18:26:51.049Z,101519.09
2022-09-11T18:29:20.233Z,101527.31
2022-09-11T18:31:51.895Z,101535.31
2022-09-11T18:34:25.529Z,101530.28
2022-09-11T18:36:52.871Z,101535.09
2022-09-11T18:39:21.256Z,101533.53
2022-09-11T18:41:50.143Z,101541.97
2022-09-11T18:44:20.508Z,101540.56
2022-09-11T18:46:48.338Z,101543.06
2022-09-11T18:49:16.587Z,101545.34
2022-09-11T18:51:43.973Z,101542.81
2022-09-11T18:54:17.567Z,101549.38
2022-09-11T18:56:45.503Z,101545.53
2022-09-11T18:59:13.785Z,101542.19
2022-09-11T19:01:41.297Z,101542.22
2022-09-11T19:04:12.953Z,101550.84
2022-09-11T19:06:40.540Z,101546.16
2022-09-11T19:09:10.488Z,101546.03
2022-09-11T19:11:38.713Z,101546.56
2022-09-11T19:14:09.569Z,101550.84
2022-09-11T19:16:37.928Z,101551.88
2022-09-11T19:19:07.301Z,101550.50
2022-09-11T19:21:35.009Z,101548.00
2022-09-11T19:24:02.669Z,101554.28
2022-09-11T19:26:43.499Z,101548.50
2022-09-11T19:29:13.315Z,101546.06
2022-09-11T19:31:41.071Z,101546.16
2022-09-11T19:34:13.579Z,101545.41
2022-09-11T19:36:41.181Z,101547.09
2022-09-11T19:39:08.155Z,101552.09
2022-09-11T19:41:38.645Z,101554.13
2022-09-11T19:44:07.916Z,101557.88
2022-09-11T19:46:35.915Z,101555.25
2022-09-11T19:49:06.311Z,101549.88
2022-09-11T19:51:37.014Z,101540.28
2022-09-11T19:54:05.520Z,101546.53
2022-09-11T19:56:35.798Z,101545.78
2022-09-11T19:59:03.533Z,101550.25
2022-09-11T20:01:30.944Z,101549.31
2022-09-11T20:04:00.482Z,101553.66
2022-09-11T20:06:31.726Z,101559.44
2022-09-11T20:09:26.896Z,101556.00
2022-09-11T20:11:46.951Z,101556.59
2022-09-11T20:14:13.949Z,101565.38
2022-09-11T20:16:41.715Z,101571.66
2022-09-11T20:19:10.033Z,101569.47
2022-09-11T20:21:37.679Z,101573.06
2022-09-11T20:24:06.474Z,101569.97
2022-09-11T20:26:36.769Z,101560.91
2022-09-11T20:29:08.032Z,101564.75
2022-09-11T20:31:47.463Z,101562.53
2022-09-11T20:34:17.561Z,101564.00
2022-09-11T20:36:44.931Z,101565.66
2022-09-11T20:39:13.702Z,101569.66
2022-09-11T20:41:40.981Z,101567.38
2022-09-11T20:44:08.221Z,101563.53
2022-09-11T20:46:35.188Z,101562.13
2022-09-11T20:49:03.287Z,101573.81
2022-09-11T20:51:30.946Z,101566.50
2022-09-11T20:53:57.865Z,101576.31
2022-09-11T20:56:24.826Z,101572.44
2022-09-11T20:58:52.548Z,101571.75
2022-09-11T21:01:23.096Z,101570.44
2022-09-11T21:03:56.537Z,101572.84
2022-09-11T21:06:27.273Z,101571.22
2022-09-11T21:08:57.088Z,101568.97
2022-09-11T21:11:29.860Z,101564.63
2022-09-11T21:13:57.501Z,101566.28
2022-09-11T21:16:24.621Z,101561.72
2022-09-11T21:18:55.103Z,101562.47
2022-09-11T21:21:23.608Z,101562.19
2022-09-11T21:23:57.050Z,101548.78
2022-09-11T21:26:26.232Z,101552.09
2022-09-11T21:28:53.179Z,101548.75
2022-09-11T21:31:20.115Z,101546.28
2022-09-11T21:33:47.245Z,101540.22
2022-09-11T21:36:14.173Z,101542.78
2022-09-11T21:38:41.178Z,101541.66
2022-09-11T21:41:10.409Z,101546.50
2022-09-11T21:43:38.206Z,101539.78
2022-09-11T21:46:07.591Z,101534.41
2022-09-11T21:48:37.040Z,101539.50
2022-09-11T21:51:13.110Z,101537.78
2022-09-11T21:53:45.202Z,101548.25
2022-09-11T21:56:26.719Z,101546.41
2022-09-11T21:58:54.012Z,101543.91
2022-09-11T22:01:23.254Z,101550.41
2022-09-11T22:03:51.299Z,101546.59
2022-09-11T22:06:20.352Z,101552.19
2022-09-11T22:08:47.465Z,101544.88
2022-09-11T22:11:15.584Z,101542.19
2022-09-11T22:13:43.173Z,101540.19
2022-09-11T22:16:15.303Z,101534.00
2022-09-11T22:18:42.783Z,101532.75
2022-09-11T22:21:10.789Z,101541.84
2022-09-11T22:23:37.921Z,101528.94
2022-09-11T22:26:11.989Z,101536.50
2022-09-11T22:28:39.715Z,101533.34
2022-09-11T22:31:13.541Z,101526.44
2022-09-11T22:33:41.691Z,101524.16
2022-09-11T22:36:19.886Z,101521.78
2022-09-11T22:38:48.603Z,101519.78
2022-09-11T22:41:18.665Z,101528.13
2022-09-11T22:43:47.534Z,101520.63
2022-09-11T22:46:14.788Z,101531.31
2022-09-11T22:48:42.294Z,101529.06
2022-09-11T22:51:10.013Z,101533.59
2022-09-11T22:53:39.481Z,101527.81
2022-09-11T22:56:07.369Z,101527.19
2022-09-11T22:58:34.376Z,101520.78
2022-09-11T23:01:03.902Z,101519.03
2022-09-11T23:03:31.239Z,101513.94
2022-09-11T23:06:19.767Z,101510.16
2022-09-11T23:08:48.143Z,101512.38
2022-09-11T23:11:19.915Z,101501.50
2022-09-11T23:13:48.570Z,101497.47
2022-09-11T23:16:23.428Z,101492.88
2022-09-11T23:18:59.893Z,101486.25
2022-09-11T23:21:28.521Z,101489.94
2022-09-11T23:23:57.954Z,101504.81
2022-09-11T23:26:27.064Z,101493.38
2022-09-11T23:28:55.806Z,101494.34
2022-09-11T23:31:26.602Z,101496.09
2022-09-11T23:33:57.015Z,101487.28
2022-09-11T23:36:25.171Z,101485.56
2022-09-11T23:38:52.889Z,101482.84
2022-09-11T23:41:20.436Z,101473.75
2022-09-11T23:43:47.778Z,101478.06
2022-09-11T23:46:14.930Z,101475.28
2022-09-11T23:48:42.000Z,101471.69
2022-09-11T23:51:10.402Z,101467.22
2022-09-11T23:53:45.028Z,101471.81
2022-09-11T23:56:14.518Z,101469.66
2022-09-11T23:58:42.416Z,101472.81
